S50AUBURN MUNI
METARs for airports near S50, sorted by distance:
NW 8 nm 432' KSEA 142253Z 21008KT 10SM FEW030 28/13 A3003
N 9 nm 32' KRNT 142253Z 17006G15KT 10SM CLR 29/13 A3000
N 12 nm 21' KBFI 142253Z VRB05KT 10SM CLR 29/14 A3000
S 13 nm 537' KPLU 142255Z 23005KT 9SM CLR 31/11 A3003
W 14 nm 294' KTIW 142253Z 26007KT 10SM CLR 28/13 A3003
SW 15 nm 322' KTCM 142255Z 30008KT 10SM CLR 29/14 A3001
SW 20 nm 301' KGRF 142255Z 28009KT 10SM CLR 29/13 A3000
NW 23 nm 444' KPWT 142256Z 22008KT 200V260 10SM CLR 28/15 A3003
N 34 nm 606' KPAE 142253Z 36007KT 10SM CLR 26/14 A3004
SW 34 nm 207' KOLM 142254Z 19012G16KT 10SM CLR 28/12 A3003
W 37 nm 272' KSHN 142253Z 23015G25KT 10SM CLR 25/12 A3001
SW 49 nm 177' KCLS 142255Z 24009KT 10SM CLR 26/10 A3005
N 50 nm 141' KAWO 142256Z 30006KT 10SM CLR 29/16 A3001
N 63 nm 47' KNUW 142253Z 26006KT 10SM FEW030 18/13 A3004
NW 68 nm 13' KNOW 142255Z 29014KT 10SM CLR 17/12 A3005
N 69 nm 145' KBVS 142255Z 00000KT 7SM CLR 26/16 A3002
NW 70 nm 291' KCLM 142253Z 33009KT 10SM CLR 21/13 A3006
E 71 nm 1763' KELN 142253Z 30023G33KT 10SM CLR 34/07 A2993
W 73 nm 17' KHQM 142311Z 28012KT 10SM OVC009 15/13 A3012
S 77 nm 20' KKLS 142256Z 28007G14KT 10SM CLR 26/16 A3006
NW 78 nm 112' KFHR 142253Z 24007KT 10SM CLR 26/13 A3003
E 82 nm 1248' KEAT 142255Z 30015G22KT 10SM CLR 37/04 A2984
SE 82 nm 1098' KYKM 142253Z 30004KT 10SM CLR 37/06 A2986
N 87 nm 34' KORS 142255Z 00000KT 9SM CLR 22/15 A3001
N 88 nm 171' KBLI 142253Z VRB05KT 10SM CLR 26/13 A3001
NW 92 nm 64' CYYJ 142300Z 12012KT 30SM SKC 24/12 A2999
S 97 nm 58' KSPB 142253Z 32008G14KT 10SM CLR A3000
SW 97 nm 14' KAST 142255Z 29010KT 10SM OVC014 18/13 A3013
TAFs for airports near S50, sorted by distance:
NW 8 nm 432' KSEA KSEA 142058Z 1421/1524 21008KT P6SM SKC
  FM151300 20004KT P6SM SCT015
  FM151700 22007KT P6SM SKC
N 12 nm 21' KBFI KBFI 141725Z 1418/1518 26006KT P6SM SKC
  FM150300 VRB03KT P6SM SKC
  FM151300 20004KT P6SM SCT015
  FM151700 22007KT P6SM SKC
SW 15 nm 322' KTCM TAF
  AMD KTCM 141900Z 1419/1519 23006KT 9999 SKC QNH3003INS
  BECMG 1420/1421 23010G15KT 9999 SKC QNH3003INS
  TEMPO 1421/1524 24015G20KT
  BECMG 1512/1513 20006KT 9999 BKN020 QNH3004INS
  BECMG 1516/1517 20006KT 9999 SKC QNH3011INS TX30/1421Z TN13/1509Z LAST NO
  AMDS AFT 1419 NEXT 1513
SW 20 nm 301' KGRF TAF TAF KGRF 122100Z 1221/1403 35007KT 9999 SKC QNH2998INS
  BECMG 1304/1305 36005KT 9999 SKC QNH2998INS
  BECMG 1317/1318 01009KT 9999 SKC QNH2995INS
  BECMG 1401/1402 34005KT 9999 SKC QNH2995INS TX29/1300Z TN14/1313Z
NW 23 nm 444' KPWT TAF KPWT 141725Z 1418/1518 22005KT P6SM SKC
  FM150600 19004KT P6SM SKC
  FM151000 20004KT P6SM BKN015
  FM151700 22004KT P6SM SCT025
N 34 nm 606' KPAE KPAE 141725Z 1418/1518 27005KT P6SM SKC
  FM142200 34007KT P6SM SKC
  FM150600 VRB04KT P6SM SKC
  FM151300 22004KT P6SM SCT015
  FM151700 25006KT P6SM SKC
SW 34 nm 207' KOLM KOLM 141725Z 1418/1518 23006KT P6SM SKC
  FM150900 20005KT 6SM BR SCT002 BKN020
  FM151700 21005KT P6SM SCT020
N 63 nm 47' KNUW TAF KNUW 1423/1523 27009KT 9999 FEW030 QNH3000INS
  BECMG 1506/1507 VRB06KT 9000 BR FEW009 QNH3002INS
  TEMPO 1511/1517 8000 BR MIFG SCT009
  BECMG 1520/1521 27007KT 9999 SKC QNH3010INS TX21/1522Z TN11/1512Z FS30190
NW 70 nm 291' KCLM KCLM 141725Z 1418/1518 32009KT P6SM SKC
  FM150000 29010KT P6SM SKC
  FM150900 32006KT P6SM SCT025
W 73 nm 17' KHQM KHQM 142105Z 1421/1518 27013KT P6SM BKN010
  FM150100 28010KT P6SM OVC003
E 82 nm 1248' KEAT TAF KEAT 141722Z 1418/1518 28008KT P6SM SKC
  FM142000 30014G22KT P6SM SKC
  FM142300 31021G28KT P6SM SKC
  FM150600 30015KT P6SM SKC
SE 82 nm 1098' KYKM TAF KYKM 141720Z 1418/1518 32008KT P6SM SKC
  FM142300 30014G23KT P6SM SKC
  FM151200 28005KT P6SM SKC
N 88 nm 171' KBLI KBLI 141725Z 1418/1518 19006KT P6SM SKC
SW 97 nm 14' KAST TAF KAST 141828Z 1418/1518 30009KT P6SM BKN015
  FM150200 31010KT 5SM BR OVC005

Shortcut to this page: http://wxbay.com.

Data may contain errors.